Terminal Aerodrome Forecast
Issued by NWS

Home | Current Version | Previous Version | Text Only | Print | Product List | Glossary On
Versions: 1 2 3 4 5 6 7 8 9 10 11 12 13 14 15
000
FTUS42 TJSJ 231121
TAFJBQ
TAF
TJBQ 231121Z 2312/2412 09011KT P6SM FEW030 BKN250
     FM231430 08012KT P6SM SCT025 SCT050 SCT250
     FM231630 07015KT P6SM VCTS SCT025CB BKN050
      TEMPO 2318/2322 VRB16G24KT 3SM +TSRA BKN022CB OVC050
     FM232300 11007KT P6SM SCT030 SCT060 SCT250=

USA.gov is the U.S. government's official web portal to all federal, state and local government web resources and services.